• Join FlightAware (Why Join?)
  • Login
  • US Flag 
08:13PM EDT


 

Airport Tracker/Info


-or-


 

Live Flight TrackerFlight Track Log ✈ N864AS ✈ 09-May-2012 ✈ KLNK - KMSP

Flight Track Log - Related Links

Times and Time Zones

All times are in EDT time to prevent confusion due to time zone crossing. See the N864AS flight status page for this flight to view local times or setup timezone preferences in your user account.

Time Position Orientation Groundspeed Altitude Reporting Facility
EDT Latitude Longitude Course Direction KTS MPH feet Rate Location/Type
06:59AM 40.8581 -96.7669 19° North 149 171 1,900  Level Minneapolis Center
07:00AM 40.8961 -96.7497 43° Northeast 176 203 3,400 2,100 Climbing Minneapolis Center
07:02AM 41.0042 -96.6156 47° Northeast 281 323 8,300 2,280 Climbing Minneapolis Center
07:03AM 41.0561 -96.5411 45° Northeast 275 316 10,600 1,800 Climbing Minneapolis Center
07:04AM 41.1189 -96.4564 47° Northeast 290 334 11,900 1,620 Climbing Minneapolis Center
07:05AM 41.1881 -96.3578 45° Northeast 328 377 13,900 1,740 Climbing Minneapolis Center
07:06AM 41.2594 -96.2617 46° Northeast 347 399 15,400 1,680 Climbing Minneapolis Center
07:07AM 41.3306 -96.1628 45° Northeast 361 415 17,300 1,380 Climbing Minneapolis Center
07:08AM 41.4081 -96.0583 47° Northeast 376 433 18,200 1,140 Climbing Minneapolis Center
07:09AM 41.4811 -95.9536 44° Northeast 376 433 19,600 1,200 Climbing Minneapolis Center
07:10AM 41.5625 -95.8489 48° Northeast 388 447 20,600 960 Climbing Minneapolis Center
07:11AM 41.6358 -95.7381 49° Northeast 388 447 21,600 1,020 Climbing Minneapolis Center
07:12AM 41.7175 -95.6133 47° Northeast 394 453 22,700 1,200 Climbing Minneapolis Center
07:13AM 41.7944 -95.5019 48° Northeast 400 460 24,000 1,380 Climbing Minneapolis Center
07:14AM 41.8672 -95.3931 46° Northeast 400 460 25,500 1,200 Climbing Minneapolis Center
07:15AM 41.9397 -95.2922 48° Northeast 387 445 26,500 900 Climbing Minneapolis Center
07:16AM 42.0103 -95.1856 47° Northeast 382 440 27,400 840 Climbing Minneapolis Center
07:17AM 42.0825 -95.0814 48° Northeast 382 440 28,200 600 Climbing Minneapolis Center
07:18AM 42.1550 -94.9744 46° Northeast 382 440 28,700 360 Climbing Minneapolis Center
07:19AM 42.2292 -94.8697 48° Northeast 382 440 29,000 120 Climbing Minneapolis Center
07:20AM 42.3056 -94.7567 49° Northeast 387 445 29,000  Level Minneapolis Center
07:21AM 42.3797 -94.6431 47° Northeast 387 445 29,000  Level Minneapolis Center
07:22AM 42.4578 -94.5294 49° Northeast 392 451 29,000  Level Minneapolis Center
07:23AM 42.5233 -94.4267 49° Northeast 392 451 29,000  Level Minneapolis Center
07:24AM 42.5953 -94.3122 39° Northeast 398 458 29,000  Level Minneapolis Center
07:25AM 42.6833 -94.2147 39° Northeast 398 458 29,000  Level Minneapolis Center
07:26AM 42.7714 -94.1169 39° Northeast 403 464 29,000  Level Minneapolis Center
07:27AM 42.8594 -94.0189 26° Northeast 408 470 29,000  Level Minneapolis Center
07:28AM 42.9597 -93.9519 17° North 403 464 29,000  Level Minneapolis Center
07:29AM 43.0619 -93.9103 14° North 383 441 29,000  Level Minneapolis Center
07:30AM 43.1661 -93.8742 15° North 389 448 29,000  Level Minneapolis Center
07:31AM 43.2789 -93.8322 15° North 389 448 29,000  Level Minneapolis Center
07:32AM 43.3831 -93.7928 15° North 389 448 29,000  Level Minneapolis Center
07:33AM 43.4872 -93.7536 17° North 389 448 29,000 -60 Level Minneapolis Center
07:34AM 43.6103 -93.7025 14° North 408 470 28,900 -1,320 Descending Minneapolis Center
07:35AM 43.7061 -93.6686 17° North 408 470 26,400 -2,820 Descending Minneapolis Center
07:36AM 43.8103 -93.6258 16° North 398 458 23,300 -3,180 Descending Minneapolis Center
07:37AM 43.9186 -93.5831 16° North 398 458 20,100 -3,360 Descending Minneapolis Center
07:38AM 44.0069 -93.5481 15° North 382 440 17,400 -3,540 Descending FAA TRACON SMA TRACON (SMA)
07:39AM 44.0764 -93.5214 15° North 374 430 15,100 -3,180 Descending FAA TRACON SMA TRACON (SMA)
07:39AM 44.1364 -93.4983 16° North 360 414 13,200 -2,940 Descending FAA TRACON SMA TRACON (SMA)
07:40AM 44.2017 -93.4722 22° Northeast 352 405 11,200 -1,680 Descending FAA TRACON SMA TRACON (SMA)
07:41AM 44.2647 -93.4372 27° Northeast 355 409 11,000 -180 Descending FAA TRACON SMA TRACON (SMA)
07:41AM 44.3194 -93.3975 26° Northeast 357 411 11,000 -300 Level FAA TRACON SMA TRACON (SMA)
07:42AM 44.3783 -93.3572 27° Northeast 340 391 10,600 -600 Descending FAA TRACON SMA TRACON (SMA)
07:43AM 44.4289 -93.3217 27° Northeast 290 334 10,200 -1,080 Descending FAA TRACON SMA TRACON (SMA)
07:43AM 44.4686 -93.2928 36° Northeast 263 303 9,200 -1,680 Descending FAA TRACON SMA TRACON (SMA)
07:44AM 44.5103 -93.2497 36° Northeast 269 310 8,000 -900 Descending FAA TRACON SMA TRACON (SMA)
07:45AM 44.5500 -93.2094 35° Northeast 255 293 8,000  Level FAA TRACON SMA TRACON (SMA)
07:45AM 44.5864 -93.1736 34° Northeast 257 296 8,000  Level FAA TRACON SMA TRACON (SMA)
07:46AM 44.6272 -93.1350 34° Northeast 255 293 8,000 -480 Level FAA TRACON SMA TRACON (SMA)
07:47AM 44.6678 -93.0967 29° Northeast 253 291 7,400 -1,620 Descending FAA TRACON SMA TRACON (SMA)
07:47AM 44.7039 -93.0686 North 243 280 5,900 -1,860 Descending FAA TRACON SMA TRACON (SMA)
07:48AM 44.7453 -93.0633 350° North 210 242 5,000 -1,740 Descending FAA TRACON SMA TRACON (SMA)
07:49AM 44.7800 -93.0719 348° North 180 207 3,600 -1,380 Descending FAA TRACON SMA TRACON (SMA)
07:49AM 44.8125 -93.0819 335° Northwest 174 200 3,200 -780 Descending FAA TRACON SMA TRACON (SMA)
07:50AM 44.8397 -93.1000 303° West 181 208 2,600 -1,020 Descending FAA TRACON SMA TRACON (SMA)
07:51AM 44.8561 -93.1350 301° West 150 173 1,900 -960 Descending FAA TRACON SMA TRACON (SMA)
07:51AM 44.8694 -93.1664 302° West 131 151 1,400 -720 Descending FAA TRACON SMA TRACON (SMA)
07:52AM 44.8797 -93.1900 302° West 132 152 1,000 -600 Descending FAA TRACON SMA TRACON (SMA)